createdAt,value
2023-03-04T00:01:02.761Z,5.33
2023-03-04T00:03:04.242Z,5.35
2023-03-04T00:05:06.280Z,5.34
2023-03-04T00:07:07.870Z,5.34
2023-03-04T00:09:09.528Z,5.36
2023-03-04T00:11:11.256Z,5.34
2023-03-04T00:13:12.918Z,5.35
2023-03-04T00:15:14.408Z,5.35
2023-03-04T00:17:15.872Z,5.34
2023-03-04T00:19:17.332Z,5.35
2023-03-04T00:21:18.777Z,5.33
2023-03-04T00:23:20.226Z,5.36
2023-03-04T00:25:21.704Z,5.37
2023-03-04T00:27:23.147Z,5.40
2023-03-04T00:29:24.706Z,5.40
2023-03-04T00:31:26.216Z,5.39
2023-03-04T00:33:27.759Z,5.38
2023-03-04T00:35:29.263Z,5.36
2023-03-04T00:37:30.727Z,5.39
2023-03-04T00:39:32.184Z,5.39
2023-03-04T00:41:33.720Z,5.40
2023-03-04T00:43:35.241Z,5.41
2023-03-04T00:45:36.830Z,5.41
2023-03-04T00:47:38.300Z,5.41
2023-03-04T00:49:39.849Z,5.43
2023-03-04T00:51:41.292Z,5.43
2023-03-04T00:53:42.742Z,5.42
2023-03-04T00:55:44.242Z,5.43
2023-03-04T00:57:45.766Z,5.45
2023-03-04T00:59:47.278Z,5.45
2023-03-04T01:01:48.736Z,5.46
2023-03-04T01:03:50.195Z,5.46
2023-03-04T01:05:51.646Z,5.46
2023-03-04T01:07:53.221Z,5.47
2023-03-04T01:09:54.681Z,5.46
2023-03-04T01:11:56.430Z,5.46
2023-03-04T01:13:57.939Z,5.47
2023-03-04T01:15:59.482Z,5.47
2023-03-04T01:18:00.985Z,5.45
2023-03-04T01:20:02.877Z,5.47
2023-03-04T01:22:04.432Z,5.48
2023-03-04T01:24:06.131Z,5.48
2023-03-04T01:26:07.618Z,5.48
2023-03-04T01:28:09.073Z,5.50
2023-03-04T01:30:11.417Z,5.49
2023-03-04T01:32:12.967Z,5.47
2023-03-04T01:34:14.532Z,5.46
2023-03-04T01:36:16.018Z,5.47
2023-03-04T01:38:17.541Z,5.47
2023-03-04T01:40:19.282Z,5.48
2023-03-04T01:42:23.120Z,5.47
2023-03-04T01:44:24.834Z,5.48
2023-03-04T01:46:26.881Z,5.48
2023-03-04T01:48:37.022Z,5.47
2023-03-04T01:50:38.616Z,5.46
2023-03-04T01:52:41.116Z,5.47
2023-03-04T01:54:42.848Z,5.47
2023-03-04T01:56:46.456Z,5.47
2023-03-04T01:59:06.987Z,5.48
2023-03-04T02:01:11.473Z,5.46
2023-03-04T02:03:16.388Z,5.48
2023-03-04T02:05:18.089Z,5.44
2023-03-04T02:07:19.577Z,5.46
2023-03-04T02:09:21.346Z,5.43
2023-03-04T02:11:22.929Z,5.41
2023-03-04T02:13:24.434Z,5.40
2023-03-04T02:15:26.112Z,5.39
2023-03-04T02:17:28.691Z,5.40
2023-03-04T02:20:05.278Z,5.40
2023-03-04T02:22:06.942Z,5.35
2023-03-04T02:24:35.484Z,5.35
2023-03-04T02:26:37.494Z,5.33
2023-03-04T02:28:39.251Z,5.27
2023-03-04T02:30:40.785Z,5.24
2023-03-04T02:32:42.288Z,5.19
2023-03-04T02:34:50.801Z,5.16
2023-03-04T02:36:53.836Z,5.12
2023-03-04T02:39:00.292Z,5.08
2023-03-04T02:41:03.337Z,5.06
2023-03-04T02:43:04.831Z,5.04
2023-03-04T02:45:06.970Z,5.02
2023-03-04T02:47:10.782Z,5.02
2023-03-04T02:49:12.500Z,5.01
2023-03-04T02:51:13.968Z,5.00
2023-03-04T02:53:15.907Z,5.02
2023-03-04T02:55:17.391Z,5.04
2023-03-04T02:57:19.274Z,5.07
2023-03-04T02:59:21.936Z,5.07
2023-03-04T03:01:27.749Z,5.09
2023-03-04T03:03:29.217Z,5.09
2023-03-04T03:05:32.839Z,5.10
2023-03-04T03:07:34.944Z,5.12
2023-03-04T03:09:36.469Z,5.12
2023-03-04T03:11:38.027Z,5.14
2023-03-04T03:13:39.470Z,5.14
2023-03-04T03:15:42.349Z,5.15
2023-03-04T03:17:44.094Z,5.16
2023-03-04T03:19:45.516Z,5.16
2023-03-04T03:21:47.004Z,5.15
2023-03-04T03:23:48.624Z,5.15
2023-03-04T03:25:50.064Z,5.17
2023-03-04T03:27:51.535Z,5.16
2023-03-04T03:29:53.025Z,5.16
2023-03-04T03:31:55.050Z,5.16
2023-03-04T03:33:56.503Z,5.16
2023-03-04T03:35:58.653Z,5.15
2023-03-04T03:38:00.187Z,5.16
2023-03-04T03:40:01.722Z,5.17
2023-03-04T03:42:03.393Z,5.19
2023-03-04T03:44:04.974Z,5.19
2023-03-04T03:46:06.494Z,5.19
2023-03-04T03:48:07.976Z,5.20
2023-03-04T03:50:09.919Z,5.21
2023-03-04T03:52:11.400Z,5.22
2023-03-04T03:54:13.059Z,5.22
2023-03-04T03:56:14.532Z,5.20
2023-03-04T03:58:16.107Z,5.20
2023-03-04T04:00:18.005Z,5.20
2023-03-04T04:02:19.685Z,5.19
2023-03-04T04:04:21.212Z,5.17
2023-03-04T04:06:22.663Z,5.16
2023-03-04T04:08:24.133Z,5.16
2023-03-04T04:10:25.611Z,5.15
2023-03-04T04:12:27.134Z,5.16
2023-03-04T04:14:28.631Z,5.12
2023-03-04T04:16:30.558Z,5.12
2023-03-04T04:18:32.072Z,5.12
2023-03-04T04:20:34.146Z,5.10
2023-03-04T04:22:35.671Z,5.08
2023-03-04T04:24:37.146Z,5.08
2023-03-04T04:26:38.815Z,5.04
2023-03-04T04:28:41.208Z,5.07
2023-03-04T04:30:42.897Z,5.06
2023-03-04T04:32:44.606Z,5.04
2023-03-04T04:34:46.082Z,5.03
2023-03-04T04:36:47.827Z,4.99
2023-03-04T04:38:49.463Z,4.99
2023-03-04T04:40:51.217Z,4.96
2023-03-04T04:42:52.690Z,4.95
2023-03-04T04:44:54.299Z,4.95
2023-03-04T04:46:55.802Z,4.94
2023-03-04T04:48:57.263Z,4.91
2023-03-04T04:50:58.706Z,4.91
2023-03-04T04:53:00.368Z,4.85
2023-03-04T04:55:02.396Z,4.85
2023-03-04T04:57:03.855Z,4.83
2023-03-04T04:59:08.591Z,4.81
2023-03-04T05:01:10.480Z,4.79
2023-03-04T05:03:11.961Z,4.76
2023-03-04T05:05:13.484Z,4.73
2023-03-04T05:07:14.938Z,4.72
2023-03-04T05:09:16.382Z,4.70
2023-03-04T05:11:19.491Z,4.68
2023-03-04T05:13:21.311Z,4.65
2023-03-04T05:15:22.853Z,4.64
2023-03-04T05:17:24.286Z,4.60
2023-03-04T05:19:25.793Z,4.56
2023-03-04T05:21:27.253Z,4.54
2023-03-04T05:23:32.467Z,4.50
2023-03-04T05:25:33.922Z,4.48
2023-03-04T05:27:35.394Z,4.46
2023-03-04T05:29:36.840Z,4.46
2023-03-04T05:31:38.273Z,4.46
2023-03-04T05:33:40.306Z,4.44
2023-03-04T05:35:43.127Z,4.44
2023-03-04T05:37:44.604Z,4.43
2023-03-04T05:39:46.046Z,4.41
2023-03-04T05:41:47.503Z,4.41
2023-03-04T05:43:49.988Z,4.40
2023-03-04T05:45:51.492Z,4.39
2023-03-04T05:47:54.154Z,4.38
2023-03-04T05:49:55.665Z,4.40
2023-03-04T05:51:57.143Z,4.41
2023-03-04T05:53:58.579Z,4.42
2023-03-04T05:56:00.276Z,4.42
2023-03-04T05:58:01.712Z,4.41
2023-03-04T06:00:05.708Z,4.44
2023-03-04T06:02:07.207Z,4.44
2023-03-04T06:04:08.770Z,4.46
2023-03-04T06:06:10.500Z,4.47
2023-03-04T06:08:13.058Z,4.48
2023-03-04T06:10:17.085Z,4.48
2023-03-04T06:12:18.584Z,4.49
2023-03-04T06:14:20.044Z,4.49
2023-03-04T06:16:21.757Z,4.51
2023-03-04T06:18:24.953Z,4.52
2023-03-04T06:20:26.469Z,4.53
2023-03-04T06:22:27.946Z,4.55
2023-03-04T06:24:29.393Z,4.56
2023-03-04T06:26:31.227Z,4.60
2023-03-04T06:28:32.678Z,4.64
2023-03-04T06:30:34.343Z,4.62
2023-03-04T06:32:35.900Z,4.64
2023-03-04T06:34:37.418Z,4.65
2023-03-04T06:36:38.872Z,4.65
2023-03-04T06:38:40.380Z,4.68
2023-03-04T06:40:41.829Z,4.67
2023-03-04T06:42:43.590Z,4.69
2023-03-04T06:44:45.245Z,4.70
2023-03-04T06:46:46.828Z,4.69
2023-03-04T06:48:48.360Z,4.70
2023-03-04T06:50:49.796Z,4.72
2023-03-04T06:52:51.297Z,4.74
2023-03-04T06:54:52.818Z,4.74
2023-03-04T06:56:54.343Z,4.76
2023-03-04T06:58:55.816Z,4.79
2023-03-04T07:00:57.342Z,4.78
2023-03-04T07:02:59.593Z,4.80
2023-03-04T07:05:01.113Z,4.78
2023-03-04T07:07:02.571Z,4.79
2023-03-04T07:09:04.142Z,4.79
2023-03-04T07:11:06.163Z,4.79
2023-03-04T07:13:07.639Z,4.79
2023-03-04T07:15:09.706Z,4.84
2023-03-04T07:17:11.180Z,4.88
2023-03-04T07:19:12.717Z,4.92
2023-03-04T07:21:15.385Z,4.94
2023-03-04T07:23:16.833Z,4.95
2023-03-04T07:25:18.323Z,4.97
2023-03-04T07:27:19.835Z,4.98
2023-03-04T07:29:21.350Z,5.00
2023-03-04T07:31:28.336Z,5.01
2023-03-04T07:33:29.772Z,5.03
2023-03-04T07:35:31.277Z,5.04
2023-03-04T07:37:32.724Z,5.06
2023-03-04T07:39:34.194Z,5.08
2023-03-04T07:41:37.211Z,5.08
2023-03-04T07:43:38.691Z,5.07
2023-03-04T07:45:40.201Z,5.08
2023-03-04T07:47:41.665Z,5.09
2023-03-04T07:49:43.105Z,5.11
2023-03-04T07:51:44.586Z,5.08
2023-03-04T07:53:49.110Z,5.11
2023-03-04T07:55:50.781Z,5.12
2023-03-04T07:57:52.228Z,5.12
2023-03-04T07:59:53.753Z,5.13
2023-03-04T08:01:55.197Z,5.13
2023-03-04T08:03:57.626Z,5.16
2023-03-04T08:05:59.072Z,5.18
2023-03-04T08:08:00.574Z,5.20
2023-03-04T08:10:02.054Z,5.21
2023-03-04T08:12:03.786Z,5.23
2023-03-04T08:14:05.683Z,5.23
2023-03-04T08:16:08.091Z,5.26
2023-03-04T08:18:09.899Z,5.27
2023-03-04T08:20:12.062Z,5.27
2023-03-04T08:22:13.522Z,5.29
2023-03-04T08:24:15.040Z,5.31
2023-03-04T08:26:18.743Z,5.32
2023-03-04T08:28:20.236Z,5.33
2023-03-04T08:30:21.887Z,5.33
2023-03-04T08:32:23.723Z,5.35
2023-03-04T08:34:27.770Z,5.35
2023-03-04T08:36:29.278Z,5.38
2023-03-04T08:38:31.940Z,5.41
2023-03-04T08:40:33.622Z,5.44
2023-03-04T08:42:35.086Z,5.45
2023-03-04T08:44:36.499Z,5.45
2023-03-04T08:46:39.906Z,5.47
2023-03-04T08:48:41.340Z,5.47
2023-03-04T08:50:45.008Z,5.44
2023-03-04T08:52:46.541Z,5.47
2023-03-04T08:54:48.008Z,5.49
2023-03-04T08:56:49.488Z,5.51
2023-03-04T08:58:50.930Z,5.49
2023-03-04T09:00:52.360Z,5.51
2023-03-04T09:02:55.740Z,5.51
2023-03-04T09:04:57.248Z,5.55
2023-03-04T09:06:58.766Z,5.61
2023-03-04T09:09:00.340Z,5.66
2023-03-04T09:11:02.494Z,5.67
2023-03-04T09:13:04.153Z,5.70
2023-03-04T09:15:13.970Z,5.71
2023-03-04T09:17:15.470Z,5.69
2023-03-04T09:19:16.910Z,5.61
2023-03-04T09:21:18.359Z,5.52
2023-03-04T09:23:19.862Z,5.48
2023-03-04T09:25:21.457Z,5.51
2023-03-04T09:27:22.931Z,5.56
2023-03-04T09:29:24.796Z,5.62
2023-03-04T09:31:27.444Z,5.67
2023-03-04T09:33:28.959Z,5.72
2023-03-04T09:35:30.566Z,5.75
2023-03-04T09:37:32.284Z,5.82
2023-03-04T09:39:33.806Z,5.91
2023-03-04T09:41:45.916Z,5.98
2023-03-04T09:43:49.182Z,6.02
2023-03-04T09:45:57.266Z,5.93
2023-03-04T09:47:59.429Z,5.87
2023-03-04T09:50:04.155Z,5.83
2023-03-04T09:52:15.780Z,5.84
2023-03-04T09:54:50.412Z,5.80
2023-03-04T09:56:57.214Z,5.72
2023-03-04T09:59:16.913Z,5.72
2023-03-04T10:01:28.378Z,5.67
2023-03-04T10:03:43.200Z,5.57
2023-03-04T10:05:58.777Z,5.52
2023-03-04T10:08:18.040Z,5.57
2023-03-04T10:10:26.173Z,5.63
2023-03-04T10:12:31.326Z,5.70
2023-03-04T10:14:38.177Z,5.75
2023-03-04T10:16:53.930Z,5.78
2023-03-04T10:19:40.686Z,5.94
2023-03-04T10:21:48.089Z,5.97
2023-03-04T10:23:49.814Z,5.96
2023-03-04T10:25:54.174Z,5.93
2023-03-04T10:27:59.702Z,5.93
2023-03-04T10:30:01.196Z,5.91
2023-03-04T10:32:02.891Z,5.88
2023-03-04T10:34:05.764Z,5.87
2023-03-04T10:36:25.751Z,5.90
2023-03-04T10:38:32.408Z,5.92
2023-03-04T10:40:38.861Z,5.99
2023-03-04T10:42:40.506Z,6.08
2023-03-04T10:44:44.452Z,6.10
2023-03-04T10:46:48.004Z,6.13
2023-03-04T10:48:49.816Z,6.21
2023-03-04T10:50:51.390Z,6.24
2023-03-04T10:52:55.803Z,6.37
2023-03-04T10:55:13.166Z,6.44
2023-03-04T10:57:18.722Z,6.39
2023-03-04T10:59:33.884Z,6.23
2023-03-04T11:01:35.409Z,6.15
2023-03-04T11:03:37.405Z,6.19
2023-03-04T11:05:38.874Z,6.28
2023-03-04T11:07:54.433Z,6.38
2023-03-04T11:10:09.236Z,6.59
2023-03-04T11:12:13.762Z,6.86
2023-03-04T11:14:30.289Z,6.90
2023-03-04T11:16:34.738Z,6.78
2023-03-04T11:18:52.279Z,6.70
2023-03-04T11:20:55.267Z,6.59
2023-03-04T11:23:05.174Z,6.71
2023-03-04T11:25:12.360Z,6.96
2023-03-04T11:27:13.895Z,7.14
2023-03-04T11:29:33.812Z,7.34
2023-03-04T11:31:42.964Z,7.39
2023-03-04T11:34:02.997Z,7.17
2023-03-04T11:36:22.127Z,7.01
2023-03-04T11:38:39.058Z,6.90
2023-03-04T11:40:49.111Z,6.90
2023-03-04T11:43:02.828Z,6.94
2023-03-04T11:45:27.497Z,7.07
2023-03-04T11:48:24.005Z,7.34
2023-03-04T11:50:41.630Z,7.44
2023-03-04T11:52:45.769Z,7.78
2023-03-04T11:55:08.299Z,7.76
2023-03-04T11:57:40.901Z,7.53
2023-03-04T11:59:50.672Z,7.35
2023-03-04T12:02:10.599Z,7.22
2023-03-04T12:04:21.563Z,7.07
2023-03-04T12:06:58.583Z,6.95
2023-03-04T12:09:06.243Z,6.97
2023-03-04T12:11:13.834Z,7.23
2023-03-04T12:13:50.678Z,7.35
2023-03-04T12:15:58.038Z,7.29
2023-03-04T12:18:11.167Z,7.25
2023-03-04T12:20:45.873Z,7.15
2023-03-04T12:22:57.900Z,7.03
2023-03-04T12:25:19.327Z,6.90
2023-03-04T12:27:27.449Z,6.91
2023-03-04T12:29:46.111Z,6.57
2023-03-04T12:31:50.601Z,6.40
2023-03-04T12:34:21.435Z,6.21
2023-03-04T12:37:00.048Z,6.02
2023-03-04T12:39:30.497Z,5.97
2023-03-04T12:41:50.501Z,5.96
2023-03-04T12:44:17.179Z,6.02
2023-03-04T12:46:19.367Z,6.05
2023-03-04T12:48:39.507Z,6.07
2023-03-04T12:50:55.875Z,6.08
2023-03-04T12:53:27.429Z,6.22
2023-03-04T12:55:40.460Z,6.39
2023-03-04T12:57:42.932Z,6.51
2023-03-04T13:00:06.094Z,6.63
2023-03-04T13:02:13.630Z,6.67
2023-03-04T13:04:27.830Z,6.73
2023-03-04T13:06:47.749Z,6.80
2023-03-04T13:08:49.158Z,6.73
2023-03-04T13:10:51.601Z,6.72
2023-03-04T13:13:00.563Z,6.71
2023-03-04T13:15:08.150Z,6.69
2023-03-04T13:17:43.924Z,6.55
2023-03-04T13:19:52.689Z,6.38
2023-03-04T13:21:54.565Z,6.35
2023-03-04T13:23:56.630Z,6.22
2023-03-04T13:25:58.157Z,5.99
2023-03-04T13:28:05.238Z,5.79
2023-03-04T13:30:35.670Z,5.68
2023-03-04T13:32:38.713Z,5.73
2023-03-04T13:34:49.076Z,5.82
2023-03-04T13:36:56.483Z,5.80
2023-03-04T13:39:18.157Z,5.75
2023-03-04T13:41:19.635Z,5.70
2023-03-04T13:43:36.620Z,5.74
2023-03-04T13:45:40.067Z,5.72
2023-03-04T13:47:44.798Z,5.80
2023-03-04T13:49:46.344Z,5.76
2023-03-04T13:51:48.000Z,5.76
2023-03-04T13:53:54.679Z,5.82
2023-03-04T13:56:08.296Z,5.86
2023-03-04T13:58:24.013Z,5.97
2023-03-04T14:00:26.429Z,6.02
2023-03-04T14:02:34.147Z,6.05
2023-03-04T14:04:40.511Z,6.06
2023-03-04T14:06:47.695Z,6.09
2023-03-04T14:08:51.200Z,6.07
2023-03-04T14:10:56.520Z,6.02
2023-03-04T14:13:00.578Z,6.01
2023-03-04T14:15:23.896Z,5.92
2023-03-04T14:17:32.281Z,5.86
2023-03-04T14:19:39.127Z,5.80
2023-03-04T14:21:45.562Z,5.71
2023-03-04T14:23:47.087Z,5.60
2023-03-04T14:25:48.675Z,5.55
2023-03-04T14:27:50.901Z,5.52
2023-03-04T14:30:01.210Z,5.47
2023-03-04T14:32:05.992Z,5.41
2023-03-04T14:34:07.566Z,5.33
2023-03-04T14:36:24.550Z,5.24
2023-03-04T14:38:36.812Z,5.20
2023-03-04T14:40:45.442Z,5.21
2023-03-04T14:42:48.119Z,5.23
2023-03-04T14:44:51.366Z,5.28
2023-03-04T14:47:06.950Z,5.28
2023-03-04T14:49:16.124Z,5.29
2023-03-04T14:51:29.744Z,5.27
2023-03-04T14:53:33.162Z,5.25
2023-03-04T14:55:35.427Z,5.29
2023-03-04T14:57:36.931Z,5.35
2023-03-04T14:59:38.448Z,5.40
2023-03-04T15:01:40.116Z,5.44
2023-03-04T15:04:04.799Z,5.48
2023-03-04T15:06:16.203Z,5.41
2023-03-04T15:08:17.620Z,5.39
2023-03-04T15:10:26.156Z,5.47
2023-03-04T15:12:31.106Z,5.39
2023-03-04T15:14:50.250Z,5.35
2023-03-04T15:16:56.922Z,5.28
2023-03-04T15:19:23.275Z,5.22
2023-03-04T15:21:31.767Z,5.22
2023-03-04T15:23:33.845Z,5.18
2023-03-04T15:25:35.740Z,5.17
2023-03-04T15:27:37.456Z,5.11
2023-03-04T15:29:39.012Z,4.99
2023-03-04T15:31:42.069Z,4.93
2023-03-04T15:33:43.778Z,4.86
2023-03-04T15:35:53.518Z,4.80
2023-03-04T15:37:55.949Z,4.73
2023-03-04T15:39:58.817Z,4.71
2023-03-04T15:42:00.837Z,4.68
2023-03-04T15:44:02.394Z,4.69
2023-03-04T15:46:04.023Z,4.69
2023-03-04T15:48:08.165Z,4.63
2023-03-04T15:50:10.927Z,4.64
2023-03-04T15:52:22.696Z,4.66
2023-03-04T15:54:28.426Z,4.64
2023-03-04T15:56:32.516Z,4.64
2023-03-04T15:58:35.239Z,4.63
2023-03-04T16:00:37.233Z,4.57
2023-03-04T16:02:39.671Z,4.57
2023-03-04T16:04:41.318Z,4.54
2023-03-04T16:06:45.520Z,4.52
2023-03-04T16:08:49.267Z,4.53
2023-03-04T16:10:52.023Z,4.50
2023-03-04T16:12:54.529Z,4.48
2023-03-04T16:14:56.008Z,4.39
2023-03-04T16:16:57.482Z,4.27
2023-03-04T16:18:58.957Z,4.15
2023-03-04T16:21:00.473Z,3.97
2023-03-04T16:23:03.046Z,3.91
2023-03-04T16:25:04.951Z,3.91
2023-03-04T16:27:10.789Z,3.88
2023-03-04T16:29:12.351Z,3.83
2023-03-04T16:31:15.634Z,3.81
2023-03-04T16:33:17.367Z,3.82
2023-03-04T16:35:20.133Z,3.83
2023-03-04T16:37:21.877Z,3.85
2023-03-04T16:39:25.880Z,3.78
2023-03-04T16:41:30.668Z,3.80
2023-03-04T16:43:32.178Z,3.75
2023-03-04T16:45:36.262Z,3.72
2023-03-04T16:47:37.728Z,3.73
2023-03-04T16:49:39.612Z,3.74
2023-03-04T16:51:49.076Z,3.77
2023-03-04T16:53:56.597Z,3.74
2023-03-04T16:56:01.320Z,3.71
2023-03-04T16:58:03.665Z,3.78
2023-03-04T17:00:06.693Z,3.76
2023-03-04T17:02:20.129Z,3.81
2023-03-04T17:04:22.246Z,3.78
2023-03-04T17:06:24.397Z,3.79
2023-03-04T17:08:25.858Z,3.71
2023-03-04T17:10:27.480Z,3.66
2023-03-04T17:12:29.004Z,3.59
2023-03-04T17:14:30.491Z,3.55
2023-03-04T17:16:33.031Z,3.49
2023-03-04T17:18:34.516Z,3.50
2023-03-04T17:20:35.986Z,3.50
2023-03-04T17:22:37.526Z,3.45
2023-03-04T17:24:39.019Z,3.44
2023-03-04T17:26:42.561Z,3.44
2023-03-04T17:28:44.003Z,3.40
2023-03-04T17:30:45.454Z,3.37
2023-03-04T17:32:46.923Z,3.32
2023-03-04T17:34:48.658Z,3.31
2023-03-04T17:36:50.116Z,3.31
2023-03-04T17:38:52.033Z,3.32
2023-03-04T17:40:53.610Z,3.34
2023-03-04T17:42:55.066Z,3.34
2023-03-04T17:44:56.595Z,3.29
2023-03-04T17:46:58.221Z,3.29
2023-03-04T17:48:59.846Z,3.30
2023-03-04T17:51:01.459Z,3.28
2023-03-04T17:53:02.976Z,3.30
2023-03-04T17:55:04.681Z,3.28
2023-03-04T17:57:06.552Z,3.27
2023-03-04T17:59:12.620Z,3.28
2023-03-04T18:01:20.062Z,3.29
2023-03-04T18:03:21.576Z,3.26
2023-03-04T18:05:23.140Z,3.25
2023-03-04T18:07:24.693Z,3.26
2023-03-04T18:09:26.764Z,3.23
2023-03-04T18:11:28.474Z,3.22
2023-03-04T18:13:30.223Z,3.22
2023-03-04T18:15:31.963Z,3.21
2023-03-04T18:17:33.450Z,3.19
2023-03-04T18:19:34.987Z,3.18
2023-03-04T18:21:36.553Z,3.19
2023-03-04T18:23:38.120Z,3.20
2023-03-04T18:25:40.062Z,3.21
2023-03-04T18:27:42.500Z,3.22
2023-03-04T18:29:43.964Z,3.17
2023-03-04T18:31:45.495Z,3.18
2023-03-04T18:33:47.545Z,3.14
2023-03-04T18:35:49.279Z,3.12
2023-03-04T18:37:51.014Z,3.08
2023-03-04T18:39:52.587Z,3.03
2023-03-04T18:41:54.081Z,3.03
2023-03-04T18:43:55.778Z,3.01
2023-03-04T18:46:04.959Z,3.01
2023-03-04T18:48:06.602Z,2.98
2023-03-04T18:50:09.308Z,2.98
2023-03-04T18:52:10.759Z,2.98
2023-03-04T18:54:12.206Z,2.99
2023-03-04T18:56:17.542Z,2.98
2023-03-04T18:58:19.442Z,2.95
2023-03-04T19:00:23.511Z,2.95
2023-03-04T19:02:33.171Z,2.95
2023-03-04T19:04:34.757Z,2.97
2023-03-04T19:06:36.301Z,2.95
2023-03-04T19:08:38.050Z,2.96
2023-03-04T19:10:39.523Z,2.98
2023-03-04T19:12:40.978Z,2.98
2023-03-04T19:14:42.481Z,2.99
2023-03-04T19:16:44.076Z,3.00
2023-03-04T19:18:45.672Z,2.96
2023-03-04T19:20:47.307Z,2.92
2023-03-04T19:22:49.030Z,2.91
2023-03-04T19:24:50.591Z,2.93
2023-03-04T19:26:52.055Z,2.93
2023-03-04T19:28:53.522Z,2.92
2023-03-04T19:30:58.853Z,2.90
2023-03-04T19:33:00.490Z,2.93
2023-03-04T19:35:01.977Z,2.91
2023-03-04T19:37:03.431Z,2.94
2023-03-04T19:39:05.661Z,2.90
2023-03-04T19:41:12.215Z,2.91
2023-03-04T19:43:14.677Z,2.89
2023-03-04T19:45:16.192Z,2.88
2023-03-04T19:47:17.795Z,2.81
2023-03-04T19:49:19.646Z,2.78
2023-03-04T19:51:23.792Z,2.76
2023-03-04T19:53:25.894Z,2.74
2023-03-04T19:55:27.422Z,2.72
2023-03-04T19:57:29.352Z,2.72
2023-03-04T19:59:30.818Z,2.69
2023-03-04T20:01:35.183Z,2.69
2023-03-04T20:03:36.764Z,2.67
2023-03-04T20:05:38.491Z,2.66
2023-03-04T20:07:40.323Z,2.66
2023-03-04T20:09:41.788Z,2.68
2023-03-04T20:11:57.327Z,2.71
2023-03-04T20:14:04.449Z,2.71
2023-03-04T20:16:10.874Z,2.70
2023-03-04T20:18:12.463Z,2.69
2023-03-04T20:20:14.350Z,2.70
2023-03-04T20:22:15.849Z,2.68
2023-03-04T20:24:19.066Z,2.70
2023-03-04T20:26:20.596Z,2.69
2023-03-04T20:28:23.365Z,2.66
2023-03-04T20:30:25.024Z,2.67
2023-03-04T20:32:26.519Z,2.67
2023-03-04T20:34:28.102Z,2.65
2023-03-04T20:36:30.907Z,2.66
2023-03-04T20:38:32.414Z,2.66
2023-03-04T20:40:35.901Z,2.65
2023-03-04T20:42:37.474Z,2.65
2023-03-04T20:44:38.963Z,2.66
2023-03-04T20:46:45.007Z,2.69
2023-03-04T20:48:46.481Z,2.71
2023-03-04T20:50:47.923Z,2.69
2023-03-04T20:52:49.458Z,2.70
2023-03-04T20:54:50.962Z,2.70
2023-03-04T20:56:52.444Z,2.67
2023-03-04T20:58:55.391Z,2.64
2023-03-04T21:00:56.871Z,2.64
2023-03-04T21:02:58.370Z,2.64
2023-03-04T21:05:01.325Z,2.64
2023-03-04T21:07:02.900Z,2.61
2023-03-04T21:09:07.315Z,2.62
2023-03-04T21:11:16.414Z,2.62
2023-03-04T21:13:21.373Z,2.61
2023-03-04T21:15:22.825Z,2.60
2023-03-04T21:17:24.642Z,2.59
2023-03-04T21:19:36.145Z,2.57
2023-03-04T21:21:37.597Z,2.57
2023-03-04T21:23:39.395Z,2.58
2023-03-04T21:25:41.511Z,2.57
2023-03-04T21:27:43.257Z,2.57
2023-03-04T21:29:44.968Z,2.58
2023-03-04T21:31:50.284Z,2.57
2023-03-04T21:33:54.315Z,2.58
2023-03-04T21:35:55.805Z,2.59
2023-03-04T21:37:57.277Z,2.60
2023-03-04T21:40:01.197Z,2.58
2023-03-04T21:42:03.885Z,2.52
2023-03-04T21:44:05.654Z,2.49
2023-03-04T21:46:07.333Z,2.49
2023-03-04T21:48:08.791Z,2.48
2023-03-04T21:50:10.898Z,2.41
2023-03-04T21:52:13.157Z,2.40
2023-03-04T21:54:15.330Z,2.38
2023-03-04T21:56:16.836Z,2.38
2023-03-04T21:58:18.393Z,2.37
2023-03-04T22:00:20.396Z,2.37
2023-03-04T22:02:22.536Z,2.35
2023-03-04T22:04:24.013Z,2.34
2023-03-04T22:06:27.164Z,2.35
2023-03-04T22:08:28.609Z,2.34
2023-03-04T22:10:31.057Z,2.35
2023-03-04T22:12:32.662Z,2.36
2023-03-04T22:14:34.177Z,2.36
2023-03-04T22:16:42.480Z,2.36
2023-03-04T22:18:50.396Z,2.37
2023-03-04T22:20:53.570Z,2.36
2023-03-04T22:22:55.032Z,2.37
2023-03-04T22:24:59.609Z,2.38
2023-03-04T22:27:01.172Z,2.36
2023-03-04T22:29:02.666Z,2.37
2023-03-04T22:31:30.210Z,2.39
2023-03-04T22:33:37.124Z,2.38
2023-03-04T22:35:41.590Z,2.36
2023-03-04T22:37:44.191Z,2.36
2023-03-04T22:39:45.648Z,2.38
2023-03-04T22:41:47.347Z,2.39
2023-03-04T22:43:49.305Z,2.37
2023-03-04T22:45:50.903Z,2.36
2023-03-04T22:47:53.085Z,2.38
2023-03-04T22:49:54.557Z,2.38
2023-03-04T22:51:56.034Z,2.37
2023-03-04T22:53:58.088Z,2.37
2023-03-04T22:55:59.978Z,2.36
2023-03-04T22:58:03.311Z,2.35
2023-03-04T23:00:16.090Z,2.36
2023-03-04T23:02:17.620Z,2.38
2023-03-04T23:04:19.084Z,2.40
2023-03-04T23:06:25.115Z,2.37
2023-03-04T23:08:26.569Z,2.37
2023-03-04T23:10:28.081Z,2.38
2023-03-04T23:12:29.573Z,2.40
2023-03-04T23:14:31.113Z,2.40
2023-03-04T23:16:36.850Z,2.41
2023-03-04T23:18:40.411Z,2.41
2023-03-04T23:20:43.324Z,2.41
2023-03-04T23:22:46.415Z,2.40
2023-03-04T23:24:47.848Z,2.42
2023-03-04T23:26:49.585Z,2.42
2023-03-04T23:28:51.696Z,2.42
2023-03-04T23:30:53.247Z,2.42
2023-03-04T23:32:54.995Z,2.43
2023-03-04T23:34:56.722Z,2.48
2023-03-04T23:36:58.224Z,2.48
2023-03-04T23:39:00.764Z,2.45
2023-03-04T23:41:02.232Z,2.43
2023-03-04T23:43:03.722Z,2.44
2023-03-04T23:45:06.352Z,2.44
2023-03-04T23:47:08.536Z,2.43
2023-03-04T23:49:12.994Z,2.44
2023-03-04T23:51:18.325Z,2.45
2023-03-04T23:53:19.897Z,2.44
2023-03-04T23:55:21.446Z,2.45
2023-03-04T23:57:22.987Z,2.47
2023-03-04T23:59:24.569Z,2.47
